createdAt,value
2019-02-27T00:00:44.827Z,-0.30
2019-02-27T00:03:13.497Z,-0.30
2019-02-27T00:05:42.409Z,-0.40
2019-02-27T00:08:10.991Z,-0.50
2019-02-27T00:10:39.913Z,-0.50
2019-02-27T00:13:08.409Z,-0.60
2019-02-27T00:15:37.975Z,-0.50
2019-02-27T00:18:07.035Z,-0.60
2019-02-27T00:20:37.199Z,-0.60
2019-02-27T00:23:05.611Z,-0.60
2019-02-27T00:25:36.132Z,-0.60
2019-02-27T00:28:04.196Z,-0.60
2019-02-27T00:30:32.613Z,-0.60
2019-02-27T00:33:01.036Z,-0.50
2019-02-27T00:35:29.559Z,-0.50
2019-02-27T00:37:58.048Z,-0.50
2019-02-27T00:40:26.481Z,-0.50
2019-02-27T00:42:55.088Z,-0.50
2019-02-27T00:45:23.494Z,-0.50
2019-02-27T00:47:53.263Z,-0.60
2019-02-27T00:50:22.223Z,-0.60
2019-02-27T00:52:51.091Z,-0.60
2019-02-27T00:55:20.162Z,-0.70
2019-02-27T00:57:48.585Z,-0.60
2019-02-27T01:00:18.026Z,-0.60
2019-02-27T01:02:46.445Z,-0.60
2019-02-27T01:05:15.096Z,-0.60
2019-02-27T01:07:43.583Z,-0.70
2019-02-27T01:10:12.998Z,-0.60
2019-02-27T01:12:41.497Z,-0.70
2019-02-27T01:15:11.474Z,-0.80
2019-02-27T01:17:39.945Z,-0.90
2019-02-27T01:20:13.506Z,-0.90
2019-02-27T01:22:41.905Z,-0.90
2019-02-27T01:25:10.495Z,-0.90
2019-02-27T01:27:38.905Z,-0.80
2019-02-27T01:30:15.501Z,-0.70
2019-02-27T01:32:43.938Z,-0.60
2019-02-27T01:35:17.807Z,-0.50
2019-02-27T01:37:44.358Z,-0.60
2019-02-27T01:40:17.402Z,-0.70
2019-02-27T01:42:44.591Z,-0.70
2019-02-27T01:45:15.327Z,-0.80
2019-02-27T01:47:43.749Z,-0.80
2019-02-27T01:50:34.083Z,-0.70
2019-02-27T01:53:07.087Z,-0.70
2019-02-27T01:55:32.728Z,-0.60
2019-02-27T01:58:01.248Z,-0.70
2019-02-27T02:00:29.720Z,-0.80
2019-02-27T02:02:58.229Z,-0.70
2019-02-27T02:05:27.435Z,-0.70
2019-02-27T02:07:56.007Z,-0.80
2019-02-27T02:10:28.114Z,-0.80
2019-02-27T02:12:58.126Z,-0.80
2019-02-27T02:15:35.438Z,-0.90
2019-02-27T02:18:23.313Z,-0.90
2019-02-27T02:21:00.894Z,-0.80
2019-02-27T02:23:47.938Z,-0.90
2019-02-27T02:26:32.112Z,-0.80
2019-02-27T02:29:17.934Z,-0.80
2019-02-27T02:32:01.440Z,-0.90
2019-02-27T02:34:48.024Z,-0.90
2019-02-27T02:37:37.771Z,-1.00
2019-02-27T02:40:07.459Z,-0.90
2019-02-27T02:43:10.431Z,-1.00
2019-02-27T02:46:16.527Z,-1.00
2019-02-27T02:48:56.775Z,-0.90
2019-02-27T02:51:51.992Z,-1.00
2019-02-27T02:54:39.589Z,-1.10
2019-02-27T02:57:22.853Z,-1.10
2019-02-27T02:59:59.907Z,-1.10
2019-02-27T03:02:36.211Z,-1.10
2019-02-27T03:05:24.455Z,-1.00
2019-02-27T03:08:02.309Z,-1.00
2019-02-27T03:10:42.918Z,-1.00
2019-02-27T03:13:22.089Z,-1.10
2019-02-27T03:16:04.172Z,-1.10
2019-02-27T03:18:44.195Z,-1.20
2019-02-27T03:21:27.301Z,-1.10
2019-02-27T03:24:12.367Z,-1.10
2019-02-27T03:26:43.863Z,-1.10
2019-02-27T03:29:27.337Z,-1.10
2019-02-27T03:32:07.578Z,-1.10
2019-02-27T03:34:48.249Z,-1.00
2019-02-27T03:37:17.810Z,-1.00
2019-02-27T03:39:57.937Z,-1.00
2019-02-27T03:42:50.026Z,-1.20
2019-02-27T03:45:30.707Z,-1.20
2019-02-27T03:48:00.613Z,-1.10
2019-02-27T03:50:34.814Z,-1.10
2019-02-27T03:53:20.894Z,-1.10
2019-02-27T03:56:08.748Z,-1.20
2019-02-27T03:59:05.652Z,-1.20
2019-02-27T04:01:41.528Z,-1.20
2019-02-27T04:04:29.381Z,-1.30
2019-02-27T04:07:14.879Z,-1.30
2019-02-27T04:09:43.295Z,-1.30
2019-02-27T04:12:16.101Z,-1.30
2019-02-27T04:14:42.300Z,-1.30
2019-02-27T04:17:10.778Z,-1.30
2019-02-27T04:19:40.368Z,-1.20
2019-02-27T04:22:08.997Z,-1.20
2019-02-27T04:24:37.424Z,-1.20
2019-02-27T04:27:05.839Z,-1.20
2019-02-27T04:29:34.273Z,-1.10
2019-02-27T04:32:02.681Z,-1.10
2019-02-27T04:34:33.294Z,-1.10
2019-02-27T04:37:01.241Z,-1.20
2019-02-27T04:39:29.682Z,-1.10
2019-02-27T04:41:58.102Z,-1.20
2019-02-27T04:44:26.525Z,-1.20
2019-02-27T04:46:55.562Z,-1.30
2019-02-27T04:49:24.047Z,-1.20
2019-02-27T04:51:52.461Z,-1.10
2019-02-27T04:54:20.887Z,-1.00
2019-02-27T04:56:49.320Z,-1.00
2019-02-27T04:59:18.600Z,-1.00
2019-02-27T05:01:47.738Z,-1.10
2019-02-27T05:04:16.151Z,-1.10
2019-02-27T05:06:46.883Z,-1.10
2019-02-27T05:09:14.713Z,-1.20
2019-02-27T05:11:47.601Z,-1.20
2019-02-27T05:14:13.283Z,-1.30
2019-02-27T05:16:41.703Z,-1.30
2019-02-27T05:19:10.135Z,-1.30
2019-02-27T05:21:38.569Z,-1.40
2019-02-27T05:24:07.749Z,-1.40
2019-02-27T05:26:37.070Z,-1.30
2019-02-27T05:29:05.666Z,-1.30
2019-02-27T05:31:34.087Z,-1.30
2019-02-27T05:34:02.502Z,-1.30
2019-02-27T05:36:31.637Z,-1.20
2019-02-27T05:39:00.819Z,-1.20
2019-02-27T05:41:32.962Z,-1.20
2019-02-27T05:43:59.400Z,-1.30
2019-02-27T05:46:27.798Z,-1.40
2019-02-27T05:48:56.213Z,-1.40
2019-02-27T05:51:24.647Z,-1.40
2019-02-27T05:53:53.080Z,-1.40
2019-02-27T05:56:21.745Z,-1.30
2019-02-27T05:58:50.153Z,-1.30
2019-02-27T06:01:18.577Z,-1.20
2019-02-27T06:03:49.402Z,-1.30
2019-02-27T06:06:17.142Z,-1.30
2019-02-27T06:08:45.565Z,-1.20
2019-02-27T06:11:13.991Z,-1.10
2019-02-27T06:13:42.401Z,-1.10
2019-02-27T06:16:10.824Z,-1.10
2019-02-27T06:18:39.241Z,-1.10
2019-02-27T06:21:07.700Z,-1.10
2019-02-27T06:23:37.834Z,-1.00
2019-02-27T06:26:06.261Z,-1.10
2019-02-27T06:28:34.690Z,-1.10
2019-02-27T06:31:03.218Z,-1.10
2019-02-27T06:33:31.661Z,-1.10
2019-02-27T06:36:00.085Z,-1.00
2019-02-27T06:38:28.510Z,-1.00
2019-02-27T06:40:56.929Z,-1.00
2019-02-27T06:43:27.389Z,-1.00
2019-02-27T06:45:55.561Z,-0.90
2019-02-27T06:48:24.070Z,-0.80
2019-02-27T06:50:52.494Z,-0.80
2019-02-27T06:53:20.933Z,-0.80
2019-02-27T06:55:49.414Z,-0.80
2019-02-27T06:58:17.846Z,-0.70
2019-02-27T07:00:46.272Z,-0.70
2019-02-27T07:03:14.760Z,-0.60
2019-02-27T07:05:45.582Z,-0.50
2019-02-27T07:08:13.314Z,-0.40
2019-02-27T07:10:41.740Z,-0.40
2019-02-27T07:13:10.165Z,-0.30
2019-02-27T07:15:38.601Z,-0.10
2019-02-27T07:18:07.015Z,0.10
2019-02-27T07:20:35.427Z,0.20
2019-02-27T07:23:03.841Z,0.20
2019-02-27T07:25:32.273Z,0.40
2019-02-27T07:28:00.771Z,0.40
2019-02-27T07:30:29.202Z,0.60
2019-02-27T07:32:57.634Z,0.70
2019-02-27T07:35:29.102Z,0.90
2019-02-27T07:37:56.214Z,1.20
2019-02-27T07:40:24.667Z,1.50
2019-02-27T07:42:53.057Z,1.60
2019-02-27T07:45:22.870Z,1.70
2019-02-27T07:47:52.291Z,1.90
2019-02-27T07:50:22.302Z,2.20
2019-02-27T07:52:52.152Z,2.30
2019-02-27T07:55:23.032Z,2.40
2019-02-27T07:57:50.920Z,2.60
2019-02-27T08:00:22.817Z,2.70
2019-02-27T08:02:51.319Z,2.80
2019-02-27T08:05:19.837Z,2.80
2019-02-27T08:07:49.140Z,2.90
2019-02-27T08:10:23.145Z,3.00
2019-02-27T08:12:55.536Z,3.20
2019-02-27T08:15:22.061Z,3.40
2019-02-27T08:17:50.573Z,3.50
2019-02-27T08:20:21.061Z,3.60
2019-02-27T08:22:49.698Z,3.90
2019-02-27T08:25:18.901Z,4.30
2019-02-27T08:27:47.423Z,4.40
2019-02-27T08:30:23.175Z,4.60
2019-02-27T08:32:51.640Z,4.70
2019-02-27T08:35:20.126Z,4.90
2019-02-27T08:37:48.586Z,5.00
2019-02-27T08:40:17.098Z,5.20
2019-02-27T08:42:45.577Z,5.40
2019-02-27T08:45:20.188Z,5.60
2019-02-27T08:47:48.065Z,5.90
2019-02-27T08:50:21.023Z,6.10
2019-02-27T08:52:51.558Z,6.40
2019-02-27T08:55:23.114Z,6.60
2019-02-27T08:57:55.580Z,6.80
2019-02-27T09:00:23.804Z,7.10
2019-02-27T09:02:52.310Z,7.40
2019-02-27T09:05:21.083Z,7.60
2019-02-27T09:07:49.642Z,7.80
2019-02-27T09:10:23.196Z,8.10
2019-02-27T09:12:51.817Z,8.30
2019-02-27T09:15:20.468Z,8.60
2019-02-27T09:17:48.960Z,8.80
2019-02-27T09:20:20.568Z,9.00
2019-02-27T09:22:49.289Z,9.50
2019-02-27T09:25:17.802Z,10.00
2019-02-27T09:27:46.274Z,10.30
2019-02-27T09:30:22.165Z,10.60
2019-02-27T09:32:50.605Z,10.90
2019-02-27T09:35:19.043Z,11.20
2019-02-27T09:37:48.378Z,11.30
2019-02-27T09:40:25.615Z,11.50
2019-02-27T09:42:54.203Z,11.70
2019-02-27T09:45:30.086Z,11.80
2019-02-27T09:47:59.899Z,12.10
2019-02-27T09:50:31.891Z,12.30
2019-02-27T09:53:01.152Z,12.50
2019-02-27T09:55:30.740Z,12.70
2019-02-27T09:57:59.356Z,12.80
2019-02-27T10:00:59.367Z,13.00
2019-02-27T10:03:24.751Z,13.10
2019-02-27T10:05:53.249Z,13.30
2019-02-27T10:08:21.747Z,13.30
2019-02-27T10:10:50.202Z,13.30
2019-02-27T10:13:18.653Z,13.50
2019-02-27T10:15:47.117Z,13.60
2019-02-27T10:18:18.381Z,13.60
2019-02-27T10:20:45.731Z,13.60
2019-02-27T10:23:14.173Z,13.70
2019-02-27T10:25:43.476Z,13.80
2019-02-27T10:28:12.586Z,13.90
2019-02-27T10:30:41.316Z,13.90
2019-02-27T10:33:11.202Z,14.00
2019-02-27T10:35:39.941Z,14.10
2019-02-27T10:38:08.430Z,14.30
2019-02-27T10:40:36.928Z,14.40
2019-02-27T10:43:05.374Z,14.50
2019-02-27T10:45:33.816Z,14.50
2019-02-27T10:48:02.295Z,14.70
2019-02-27T10:50:30.819Z,14.80
2019-02-27T10:52:59.299Z,14.80
2019-02-27T10:55:27.751Z,14.90
2019-02-27T10:57:56.259Z,15.10
2019-02-27T11:00:32.337Z,15.40
2019-02-27T11:03:01.636Z,15.60
2019-02-27T11:05:32.118Z,15.80
2019-02-27T11:08:00.671Z,16.00
2019-02-27T11:10:29.114Z,16.20
2019-02-27T11:12:57.749Z,16.50
2019-02-27T11:15:26.964Z,16.80
2019-02-27T11:17:55.532Z,17.00
2019-02-27T11:20:24.785Z,17.30
2019-02-27T11:22:53.337Z,17.60
2019-02-27T11:25:26.968Z,18.00
2019-02-27T11:27:55.431Z,18.10
2019-02-27T11:30:36.898Z,18.20
2019-02-27T11:33:05.764Z,17.90
2019-02-27T11:35:34.269Z,17.60
2019-02-27T11:38:02.719Z,17.50
2019-02-27T11:40:31.309Z,17.50
2019-02-27T11:43:01.116Z,17.40
2019-02-27T11:45:29.824Z,17.20
2019-02-27T11:47:58.438Z,17.10
2019-02-27T11:50:26.970Z,17.10
2019-02-27T11:52:55.493Z,17.10
2019-02-27T11:55:24.564Z,17.10
2019-02-27T11:57:53.245Z,17.00
2019-02-27T12:00:30.557Z,17.00
2019-02-27T12:02:59.355Z,16.90
2019-02-27T12:05:33.895Z,16.70
2019-02-27T12:07:58.743Z,16.70
2019-02-27T12:10:29.805Z,16.50
2019-02-27T12:13:00.696Z,16.60
2019-02-27T12:15:28.704Z,16.50
2019-02-27T12:18:00.301Z,16.40
2019-02-27T12:20:27.465Z,16.40
2019-02-27T12:22:55.952Z,16.60
2019-02-27T12:25:27.836Z,16.70
2019-02-27T12:27:56.129Z,16.70
2019-02-27T12:30:28.930Z,16.70
2019-02-27T12:32:57.714Z,16.90
2019-02-27T12:35:33.920Z,17.00
2019-02-27T12:38:06.833Z,17.20
2019-02-27T12:40:32.745Z,17.30
2019-02-27T12:43:02.856Z,17.40
2019-02-27T12:45:31.708Z,17.30
2019-02-27T12:48:00.239Z,17.30
2019-02-27T12:50:31.009Z,17.40
2019-02-27T12:52:59.800Z,17.40
2019-02-27T12:55:28.422Z,17.60
2019-02-27T12:57:56.895Z,17.80
2019-02-27T13:00:30.347Z,17.80
2019-02-27T13:02:59.278Z,18.00
2019-02-27T13:05:28.410Z,18.00
2019-02-27T13:07:58.149Z,18.20
2019-02-27T13:10:27.304Z,18.30
2019-02-27T13:12:55.912Z,18.40
2019-02-27T13:15:25.912Z,18.30
2019-02-27T13:17:57.698Z,18.50
2019-02-27T13:20:27.695Z,18.70
2019-02-27T13:22:56.244Z,18.70
2019-02-27T13:25:24.924Z,18.80
2019-02-27T13:27:53.494Z,19.00
2019-02-27T13:30:26.917Z,19.00
2019-02-27T13:33:00.531Z,19.20
2019-02-27T13:35:25.707Z,19.20
2019-02-27T13:37:54.261Z,19.20
2019-02-27T13:40:25.116Z,19.20
2019-02-27T13:42:53.756Z,19.40
2019-02-27T13:45:24.990Z,19.70
2019-02-27T13:47:53.557Z,19.40
2019-02-27T13:50:24.435Z,19.40
2019-02-27T13:52:52.322Z,19.30
2019-02-27T13:55:22.497Z,19.50
2019-02-27T13:57:51.044Z,19.70
2019-02-27T14:00:21.985Z,20.00
2019-02-27T14:02:50.501Z,19.70
2019-02-27T14:05:19.119Z,19.70
2019-02-27T14:07:47.573Z,19.60
2019-02-27T14:10:20.521Z,19.60
2019-02-27T14:12:48.264Z,19.50
2019-02-27T14:15:18.732Z,19.60
2019-02-27T14:17:47.186Z,19.80
2019-02-27T14:20:18.261Z,19.80
2019-02-27T14:22:46.720Z,19.80
2019-02-27T14:25:18.255Z,20.20
2019-02-27T14:27:47.448Z,20.60
2019-02-27T14:30:21.692Z,20.50
2019-02-27T14:32:50.155Z,20.50
2019-02-27T14:35:18.822Z,20.70
2019-02-27T14:37:50.022Z,21.00
2019-02-27T14:40:20.739Z,21.20
2019-02-27T14:42:53.926Z,21.10
2019-02-27T14:45:21.393Z,21.10
2019-02-27T14:47:49.858Z,21.00
2019-02-27T14:50:20.818Z,21.10
2019-02-27T14:52:49.989Z,21.40
2019-02-27T14:55:19.107Z,21.80
2019-02-27T14:57:51.059Z,21.70
2019-02-27T15:00:29.461Z,21.80
2019-02-27T15:02:58.159Z,21.90
2019-02-27T15:05:26.800Z,22.20
2019-02-27T15:07:55.326Z,22.20
2019-02-27T15:10:24.632Z,22.10
2019-02-27T15:12:54.972Z,22.00
2019-02-27T15:15:28.148Z,22.30
2019-02-27T15:17:57.041Z,22.40
2019-02-27T15:20:30.018Z,21.10
2019-02-27T15:22:58.536Z,20.40
2019-02-27T15:25:27.841Z,19.90
2019-02-27T15:27:58.858Z,19.40
2019-02-27T15:30:31.365Z,19.10
2019-02-27T15:33:03.735Z,18.60
2019-02-27T15:35:30.151Z,18.20
2019-02-27T15:37:58.742Z,18.00
2019-02-27T15:40:30.153Z,17.80
2019-02-27T15:42:58.705Z,17.50
2019-02-27T15:45:28.113Z,17.20
2019-02-27T15:47:56.709Z,17.20
2019-02-27T15:50:26.983Z,16.80
2019-02-27T15:52:55.421Z,16.50
2019-02-27T15:55:23.932Z,16.20
2019-02-27T15:57:53.759Z,15.90
2019-02-27T16:00:24.678Z,15.70
2019-02-27T16:02:53.265Z,15.40
2019-02-27T16:05:21.938Z,15.10
2019-02-27T16:07:50.471Z,14.80
2019-02-27T16:10:22.859Z,14.50
2019-02-27T16:12:51.455Z,14.40
2019-02-27T16:15:21.455Z,14.20
2019-02-27T16:17:50.015Z,14.00
2019-02-27T16:20:20.577Z,13.70
2019-02-27T16:22:49.006Z,13.50
2019-02-27T16:25:28.025Z,13.20
2019-02-27T16:27:56.465Z,13.00
2019-02-27T16:30:32.330Z,12.60
2019-02-27T16:32:59.771Z,12.20
2019-02-27T16:35:28.279Z,11.80
2019-02-27T16:37:57.880Z,11.40
2019-02-27T16:40:28.665Z,11.10
2019-02-27T16:42:57.108Z,10.80
2019-02-27T16:45:36.817Z,10.50
2019-02-27T16:48:04.306Z,10.20
2019-02-27T16:50:32.748Z,9.90
2019-02-27T16:53:01.198Z,9.70
2019-02-27T16:55:29.879Z,9.50
2019-02-27T16:57:58.407Z,9.30
2019-02-27T17:00:30.828Z,9.10
2019-02-27T17:02:59.342Z,8.90
2019-02-27T17:05:27.789Z,8.70
2019-02-27T17:08:00.668Z,8.60
2019-02-27T17:10:31.855Z,8.40
2019-02-27T17:13:00.359Z,8.20
2019-02-27T17:15:34.718Z,8.00
2019-02-27T17:17:59.138Z,7.70
2019-02-27T17:20:28.162Z,7.50
2019-02-27T17:22:56.753Z,7.40
2019-02-27T17:25:29.085Z,7.30
2019-02-27T17:27:55.429Z,7.30
2019-02-27T17:30:25.930Z,7.20
2019-02-27T17:32:54.358Z,7.10
2019-02-27T17:35:23.656Z,6.90
2019-02-27T17:37:52.789Z,6.90
2019-02-27T17:40:21.229Z,6.70
2019-02-27T17:42:53.206Z,6.50
2019-02-27T17:45:26.871Z,6.30
2019-02-27T17:47:55.329Z,6.20
2019-02-27T17:50:23.900Z,6.10
2019-02-27T17:52:52.514Z,6.00
2019-02-27T17:55:21.176Z,5.90
2019-02-27T17:57:49.645Z,5.90
2019-02-27T18:00:28.549Z,5.80
2019-02-27T18:02:57.155Z,5.70
2019-02-27T18:05:26.189Z,5.70
2019-02-27T18:07:54.771Z,5.50
2019-02-27T18:10:23.253Z,5.40
2019-02-27T18:12:51.815Z,5.30
2019-02-27T18:15:21.720Z,5.20
2019-02-27T18:17:50.231Z,5.10
2019-02-27T18:20:24.404Z,5.00
2019-02-27T18:22:50.227Z,4.90
2019-02-27T18:25:19.045Z,4.80
2019-02-27T18:27:47.984Z,4.80
2019-02-27T18:30:21.613Z,4.80
2019-02-27T18:32:50.114Z,4.70
2019-02-27T18:35:19.281Z,4.50
2019-02-27T18:37:53.279Z,4.50
2019-02-27T18:40:19.161Z,4.40
2019-02-27T18:42:47.676Z,4.30
2019-02-27T18:45:18.525Z,4.30
2019-02-27T18:47:46.963Z,4.20
2019-02-27T18:50:16.060Z,4.10
2019-02-27T18:52:44.570Z,4.10
2019-02-27T18:55:14.282Z,4.00
2019-02-27T18:57:46.020Z,3.90
2019-02-27T19:00:19.585Z,3.90
2019-02-27T19:02:48.266Z,3.80
2019-02-27T19:05:16.706Z,3.70
2019-02-27T19:07:45.141Z,3.60
2019-02-27T19:10:15.553Z,3.60
2019-02-27T19:12:43.989Z,3.50
2019-02-27T19:15:15.790Z,3.50
2019-02-27T19:17:44.295Z,3.50
2019-02-27T19:20:15.474Z,3.50
2019-02-27T19:22:43.928Z,3.40
2019-02-27T19:25:13.929Z,3.30
2019-02-27T19:27:42.491Z,3.30
2019-02-27T19:30:18.243Z,3.20
2019-02-27T19:32:47.420Z,3.20
2019-02-27T19:35:21.161Z,3.20
2019-02-27T19:37:46.942Z,3.30
2019-02-27T19:40:17.810Z,3.50
2019-02-27T19:42:57.250Z,3.40
2019-02-27T19:45:25.933Z,3.60
2019-02-27T19:47:55.769Z,3.50
2019-02-27T19:50:24.606Z,3.40
2019-02-27T19:52:53.057Z,3.40
2019-02-27T19:55:26.544Z,3.30
2019-02-27T19:57:51.810Z,3.30
2019-02-27T20:00:35.212Z,3.50
2019-02-27T20:03:03.965Z,3.50
2019-02-27T20:05:32.467Z,3.50
2019-02-27T20:08:02.466Z,3.50
2019-02-27T20:10:33.250Z,3.90
2019-02-27T20:13:01.435Z,4.00
2019-02-27T20:15:29.962Z,4.20
2019-02-27T20:17:58.526Z,4.10
2019-02-27T20:20:27.238Z,4.20
2019-02-27T20:22:56.154Z,4.20
2019-02-27T20:25:27.566Z,4.20
2019-02-27T20:27:57.872Z,4.10
2019-02-27T20:30:26.509Z,4.10
2019-02-27T20:32:55.038Z,4.00
2019-02-27T20:35:23.811Z,4.10
2019-02-27T20:37:52.437Z,4.10
2019-02-27T20:40:21.281Z,4.00
2019-02-27T20:42:52.051Z,4.00
2019-02-27T20:45:26.523Z,4.00
2019-02-27T20:47:57.836Z,4.00
2019-02-27T20:50:39.285Z,4.00
2019-02-27T20:53:09.452Z,3.90
2019-02-27T20:55:37.919Z,4.00
2019-02-27T20:58:06.441Z,3.80
2019-02-27T21:00:36.611Z,3.60
2019-02-27T21:03:05.383Z,3.50
2019-02-27T21:05:34.524Z,3.50
2019-02-27T21:08:03.051Z,3.40
2019-02-27T21:10:33.519Z,3.30
2019-02-27T21:13:02.046Z,3.20
2019-02-27T21:15:32.487Z,3.10
2019-02-27T21:18:00.674Z,3.20
2019-02-27T21:20:29.167Z,3.20
2019-02-27T21:23:00.045Z,3.40
2019-02-27T21:25:27.762Z,3.40
2019-02-27T21:27:56.287Z,3.40
2019-02-27T21:30:25.570Z,3.30
2019-02-27T21:32:54.123Z,3.30
2019-02-27T21:35:22.774Z,3.20
2019-02-27T21:37:51.316Z,3.30
2019-02-27T21:40:20.294Z,3.10
2019-02-27T21:42:50.897Z,2.90
2019-02-27T21:45:23.765Z,2.80
2019-02-27T21:47:52.905Z,2.80
2019-02-27T21:50:26.000Z,3.00
2019-02-27T21:52:55.591Z,3.10
2019-02-27T21:55:24.488Z,3.30
2019-02-27T21:57:53.031Z,3.40
2019-02-27T22:00:26.461Z,3.60
2019-02-27T22:02:56.021Z,3.60
2019-02-27T22:05:24.529Z,3.70
2019-02-27T22:07:52.961Z,3.70
2019-02-27T22:10:22.357Z,3.70
2019-02-27T22:12:50.807Z,3.80
2019-02-27T22:15:23.149Z,3.90
2019-02-27T22:17:51.787Z,4.00
2019-02-27T22:20:21.151Z,4.10
2019-02-27T22:22:49.587Z,4.10
2019-02-27T22:25:18.058Z,4.30
2019-02-27T22:27:46.729Z,4.20
2019-02-27T22:30:17.838Z,4.40
2019-02-27T22:32:48.134Z,4.60
2019-02-27T22:35:16.502Z,4.80
2019-02-27T22:37:44.942Z,4.90
2019-02-27T22:40:16.008Z,5.00
2019-02-27T22:42:45.435Z,5.10
2019-02-27T22:45:17.164Z,5.20
2019-02-27T22:47:45.665Z,5.30
2019-02-27T22:50:16.173Z,5.30
2019-02-27T22:52:44.773Z,5.40
2019-02-27T22:55:13.381Z,5.60
2019-02-27T22:57:41.825Z,5.70
2019-02-27T23:00:23.971Z,5.90
2019-02-27T23:02:53.459Z,6.00
2019-02-27T23:05:22.034Z,6.00
2019-02-27T23:07:51.667Z,6.10
2019-02-27T23:10:20.874Z,6.10
2019-02-27T23:12:49.332Z,6.30
2019-02-27T23:15:17.790Z,6.60
2019-02-27T23:17:46.226Z,6.70
2019-02-27T23:20:17.459Z,6.70
2019-02-27T23:22:44.917Z,6.90
2019-02-27T23:25:15.636Z,6.90
2019-02-27T23:27:43.529Z,7.10
2019-02-27T23:30:15.869Z,7.20
2019-02-27T23:32:42.499Z,7.40
2019-02-27T23:35:15.856Z,7.40
2019-02-27T23:37:41.143Z,7.60
2019-02-27T23:40:09.793Z,7.60
2019-02-27T23:42:38.263Z,7.90
2019-02-27T23:45:10.276Z,7.80
2019-02-27T23:47:39.093Z,7.90
2019-02-27T23:50:11.010Z,7.90
2019-02-27T23:52:40.449Z,7.80
2019-02-27T23:55:09.946Z,7.90
2019-02-27T23:57:39.268Z,8.00
